sensor_id;sensor_type;location;lat;lon;timestamp;temperature;humidity
47600;DHT22;33323;52.124;6.018;2023-01-15T00:00:41;7.00;99.90
47600;DHT22;33323;52.124;6.018;2023-01-15T00:03:09;7.00;99.90
47600;DHT22;33323;52.124;6.018;2023-01-15T00:05:36;7.00;99.90
47600;DHT22;33323;52.124;6.018;2023-01-15T00:08:04;7.00;99.90
47600;DHT22;33323;52.124;6.018;2023-01-15T00:10:31;7.00;99.90
47600;DHT22;33323;52.124;6.018;2023-01-15T00:12:59;6.90;99.90
47600;DHT22;33323;52.124;6.018;2023-01-15T00:15:26;6.90;99.90
47600;DHT22;33323;52.124;6.018;2023-01-15T00:17:54;6.90;99.90
47600;DHT22;33323;52.124;6.018;2023-01-15T00:20:21;6.90;99.90
47600;DHT22;33323;52.124;6.018;2023-01-15T00:22:51;6.90;99.90
47600;DHT22;33323;52.124;6.018;2023-01-15T00:25:38;6.80;99.90
47600;DHT22;33323;52.124;6.018;2023-01-15T00:28:29;6.90;99.90
47600;DHT22;33323;52.124;6.018;2023-01-15T00:31:01;6.80;99.90
47600;DHT22;33323;52.124;6.018;2023-01-15T00:33:43;6.80;99.90
47600;DHT22;33323;52.124;6.018;2023-01-15T00:36:15;6.80;99.90
47600;DHT22;33323;52.124;6.018;2023-01-15T00:38:49;6.80;99.90
47600;DHT22;33323;52.124;6.018;2023-01-15T00:41:19;6.80;99.90
47600;DHT22;33323;52.124;6.018;2023-01-15T00:43:54;6.90;99.90
47600;DHT22;33323;52.124;6.018;2023-01-15T00:46:26;6.80;99.90
47600;DHT22;33323;52.124;6.018;2023-01-15T00:49:23;6.80;99.90
47600;DHT22;33323;52.124;6.018;2023-01-15T00:51:50;6.80;99.90
47600;DHT22;33323;52.124;6.018;2023-01-15T00:54:17;6.90;99.90
47600;DHT22;33323;52.124;6.018;2023-01-15T00:56:49;6.90;99.90
47600;DHT22;33323;52.124;6.018;2023-01-15T00:59:19;6.90;99.90
47600;DHT22;33323;52.124;6.018;2023-01-15T01:01:53;6.90;99.90
47600;DHT22;33323;52.124;6.018;2023-01-15T01:04:27;6.80;99.90
47600;DHT22;33323;52.124;6.018;2023-01-15T01:07:05;6.80;99.90
47600;DHT22;33323;52.124;6.018;2023-01-15T01:09:36;6.80;99.90
47600;DHT22;33323;52.124;6.018;2023-01-15T01:12:04;6.90;99.90
47600;DHT22;33323;52.124;6.018;2023-01-15T01:14:33;6.90;99.90
47600;DHT22;33323;52.124;6.018;2023-01-15T01:17:02;6.90;99.90
47600;DHT22;33323;52.124;6.018;2023-01-15T01:19:30;6.90;99.90
47600;DHT22;33323;52.124;6.018;2023-01-15T01:21:57;6.90;99.90
47600;DHT22;33323;52.124;6.018;2023-01-15T01:24:25;6.90;99.90
47600;DHT22;33323;52.124;6.018;2023-01-15T01:26:54;6.90;99.90
47600;DHT22;33323;52.124;6.018;2023-01-15T01:29:29;6.90;99.90
47600;DHT22;33323;52.124;6.018;2023-01-15T01:32:08;6.90;99.90
47600;DHT22;33323;52.124;6.018;2023-01-15T01:34:53;6.90;99.90
47600;DHT22;33323;52.124;6.018;2023-01-15T01:37:28;6.90;99.90
47600;DHT22;33323;52.124;6.018;2023-01-15T01:40:31;6.90;99.90
47600;DHT22;33323;52.124;6.018;2023-01-15T01:43:05;6.90;99.90
47600;DHT22;33323;52.124;6.018;2023-01-15T01:45:41;6.90;99.90
47600;DHT22;33323;52.124;6.018;2023-01-15T01:48:15;6.90;99.90
47600;DHT22;33323;52.124;6.018;2023-01-15T01:50:47;6.80;99.90
47600;DHT22;33323;52.124;6.018;2023-01-15T01:53:22;6.90;99.90
47600;DHT22;33323;52.124;6.018;2023-01-15T01:55:55;6.90;99.90
47600;DHT22;33323;52.124;6.018;2023-01-15T01:58:29;6.90;99.90
47600;DHT22;33323;52.124;6.018;2023-01-15T02:01:04;6.80;99.90
47600;DHT22;33323;52.124;6.018;2023-01-15T02:03:37;6.90;99.90
47600;DHT22;33323;52.124;6.018;2023-01-15T02:06:11;6.90;99.90
47600;DHT22;33323;52.124;6.018;2023-01-15T02:08:42;6.90;99.90
47600;DHT22;33323;52.124;6.018;2023-01-15T02:11:21;6.80;99.90
47600;DHT22;33323;52.124;6.018;2023-01-15T02:14:27;6.80;99.90
47600;DHT22;33323;52.124;6.018;2023-01-15T02:17:29;6.80;99.90
47600;DHT22;33323;52.124;6.018;2023-01-15T02:20:42;6.70;99.90
47600;DHT22;33323;52.124;6.018;2023-01-15T02:27:10;6.70;99.90
47600;DHT22;33323;52.124;6.018;2023-01-15T02:33:05;6.70;99.90
47600;DHT22;33323;52.124;6.018;2023-01-15T02:35:44;6.70;99.90
47600;DHT22;33323;52.124;6.018;2023-01-15T02:38:39;6.60;99.90
47600;DHT22;33323;52.124;6.018;2023-01-15T02:41:14;6.70;99.90
47600;DHT22;33323;52.124;6.018;2023-01-15T02:43:49;6.60;99.90
47600;DHT22;33323;52.124;6.018;2023-01-15T02:46:28;6.60;99.90
47600;DHT22;33323;52.124;6.018;2023-01-15T02:49:02;6.60;99.90
47600;DHT22;33323;52.124;6.018;2023-01-15T02:51:53;6.60;99.90
47600;DHT22;33323;52.124;6.018;2023-01-15T02:54:30;6.50;99.90
47600;DHT22;33323;52.124;6.018;2023-01-15T02:57:03;6.50;99.90
47600;DHT22;33323;52.124;6.018;2023-01-15T02:59:40;6.50;99.90
47600;DHT22;33323;52.124;6.018;2023-01-15T03:02:17;6.50;99.90
47600;DHT22;33323;52.124;6.018;2023-01-15T03:05:07;6.50;99.90
47600;DHT22;33323;52.124;6.018;2023-01-15T03:07:45;6.50;99.90
47600;DHT22;33323;52.124;6.018;2023-01-15T03:11:09;6.40;99.90
47600;DHT22;33323;52.124;6.018;2023-01-15T03:17:22;6.40;99.90
47600;DHT22;33323;52.124;6.018;2023-01-15T03:20:05;6.40;99.90
47600;DHT22;33323;52.124;6.018;2023-01-15T03:22:39;6.40;99.90
47600;DHT22;33323;52.124;6.018;2023-01-15T03:25:15;6.40;99.90
47600;DHT22;33323;52.124;6.018;2023-01-15T03:27:52;6.40;99.90
47600;DHT22;33323;52.124;6.018;2023-01-15T03:30:22;6.40;99.90
47600;DHT22;33323;52.124;6.018;2023-01-15T03:32:52;6.40;99.90
47600;DHT22;33323;52.124;6.018;2023-01-15T03:35:58;6.40;99.90
47600;DHT22;33323;52.124;6.018;2023-01-15T03:38:33;6.40;99.90
47600;DHT22;33323;52.124;6.018;2023-01-15T03:41:14;6.40;99.90
47600;DHT22;33323;52.124;6.018;2023-01-15T03:47:32;6.30;99.90
47600;DHT22;33323;52.124;6.018;2023-01-15T03:50:37;6.40;99.90
47600;DHT22;33323;52.124;6.018;2023-01-15T03:53:26;6.40;99.90
47600;DHT22;33323;52.124;6.018;2023-01-15T03:59:03;6.40;99.90
47600;DHT22;33323;52.124;6.018;2023-01-15T04:01:50;6.40;99.90
47600;DHT22;33323;52.124;6.018;2023-01-15T04:04:28;6.40;99.90
47600;DHT22;33323;52.124;6.018;2023-01-15T04:07:02;6.40;99.90
47600;DHT22;33323;52.124;6.018;2023-01-15T04:09:36;6.40;99.90
47600;DHT22;33323;52.124;6.018;2023-01-15T04:12:09;6.30;99.90
47600;DHT22;33323;52.124;6.018;2023-01-15T04:14:42;6.20;99.90
47600;DHT22;33323;52.124;6.018;2023-01-15T04:17:17;6.20;99.90
47600;DHT22;33323;52.124;6.018;2023-01-15T04:19:54;6.30;99.90
47600;DHT22;33323;52.124;6.018;2023-01-15T04:22:34;6.30;99.90
47600;DHT22;33323;52.124;6.018;2023-01-15T04:25:06;6.20;99.90
47600;DHT22;33323;52.124;6.018;2023-01-15T04:27:42;6.20;99.90
47600;DHT22;33323;52.124;6.018;2023-01-15T04:30:20;6.20;99.90
47600;DHT22;33323;52.124;6.018;2023-01-15T04:33:01;6.10;99.90
47600;DHT22;33323;52.124;6.018;2023-01-15T04:35:32;6.20;99.90
47600;DHT22;33323;52.124;6.018;2023-01-15T04:38:05;6.20;99.90
47600;DHT22;33323;52.124;6.018;2023-01-15T04:40:32;6.30;99.90
47600;DHT22;33323;52.124;6.018;2023-01-15T04:43:18;6.20;99.90
47600;DHT22;33323;52.124;6.018;2023-01-15T04:46:05;6.20;99.90
47600;DHT22;33323;52.124;6.018;2023-01-15T04:48:38;6.20;99.90
47600;DHT22;33323;52.124;6.018;2023-01-15T04:51:13;6.20;99.90
47600;DHT22;33323;52.124;6.018;2023-01-15T04:53:47;6.20;99.90
47600;DHT22;33323;52.124;6.018;2023-01-15T04:56:19;6.10;99.90
47600;DHT22;33323;52.124;6.018;2023-01-15T04:58:54;6.10;99.90
47600;DHT22;33323;52.124;6.018;2023-01-15T05:01:28;6.10;99.90
47600;DHT22;33323;52.124;6.018;2023-01-15T05:03:57;6.00;99.90
47600;DHT22;33323;52.124;6.018;2023-01-15T05:06:27;6.00;99.90
47600;DHT22;33323;52.124;6.018;2023-01-15T05:08:58;6.00;99.90
47600;DHT22;33323;52.124;6.018;2023-01-15T05:11:36;6.00;99.90
47600;DHT22;33323;52.124;6.018;2023-01-15T05:14:10;5.90;99.90
47600;DHT22;33323;52.124;6.018;2023-01-15T05:16:49;5.90;99.90
47600;DHT22;33323;52.124;6.018;2023-01-15T05:19:21;5.90;99.90
47600;DHT22;33323;52.124;6.018;2023-01-15T05:21:52;5.90;99.90
47600;DHT22;33323;52.124;6.018;2023-01-15T05:24:32;6.00;99.90
47600;DHT22;33323;52.124;6.018;2023-01-15T05:27:06;6.00;99.90
47600;DHT22;33323;52.124;6.018;2023-01-15T05:29:36;6.00;99.90
47600;DHT22;33323;52.124;6.018;2023-01-15T05:32:08;6.00;99.90
47600;DHT22;33323;52.124;6.018;2023-01-15T05:34:39;6.00;99.90
47600;DHT22;33323;52.124;6.018;2023-01-15T05:37:17;6.00;99.90
47600;DHT22;33323;52.124;6.018;2023-01-15T05:39:47;5.90;99.90
47600;DHT22;33323;52.124;6.018;2023-01-15T05:42:16;6.00;99.90
47600;DHT22;33323;52.124;6.018;2023-01-15T05:44:50;5.90;99.90
47600;DHT22;33323;52.124;6.018;2023-01-15T05:47:17;5.90;99.90
47600;DHT22;33323;52.124;6.018;2023-01-15T05:49:44;6.00;99.90
47600;DHT22;33323;52.124;6.018;2023-01-15T05:52:14;6.00;99.90
47600;DHT22;33323;52.124;6.018;2023-01-15T05:54:41;6.00;99.90
47600;DHT22;33323;52.124;6.018;2023-01-15T05:57:12;6.00;99.90
47600;DHT22;33323;52.124;6.018;2023-01-15T05:59:43;6.10;99.90
47600;DHT22;33323;52.124;6.018;2023-01-15T06:02:16;6.10;99.90
47600;DHT22;33323;52.124;6.018;2023-01-15T06:04:47;6.10;99.90
47600;DHT22;33323;52.124;6.018;2023-01-15T06:07:14;6.00;99.90
47600;DHT22;33323;52.124;6.018;2023-01-15T06:09:44;6.00;99.90
47600;DHT22;33323;52.124;6.018;2023-01-15T06:12:11;5.90;99.90
47600;DHT22;33323;52.124;6.018;2023-01-15T06:14:39;6.00;99.90
47600;DHT22;33323;52.124;6.018;2023-01-15T06:17:06;5.90;99.90
47600;DHT22;33323;52.124;6.018;2023-01-15T06:19:33;5.90;99.90
47600;DHT22;33323;52.124;6.018;2023-01-15T06:22:14;5.90;99.90
47600;DHT22;33323;52.124;6.018;2023-01-15T06:24:57;5.90;99.90
47600;DHT22;33323;52.124;6.018;2023-01-15T06:27:26;5.80;99.90
47600;DHT22;33323;52.124;6.018;2023-01-15T06:29:57;5.90;99.90
47600;DHT22;33323;52.124;6.018;2023-01-15T06:32:34;5.90;99.90
47600;DHT22;33323;52.124;6.018;2023-01-15T06:35:05;5.90;99.90
47600;DHT22;33323;52.124;6.018;2023-01-15T06:37:35;5.90;99.90
47600;DHT22;33323;52.124;6.018;2023-01-15T06:40:12;5.80;99.90
47600;DHT22;33323;52.124;6.018;2023-01-15T06:42:46;5.90;99.90
47600;DHT22;33323;52.124;6.018;2023-01-15T06:45:39;5.90;99.90
47600;DHT22;33323;52.124;6.018;2023-01-15T06:48:27;5.80;99.90
47600;DHT22;33323;52.124;6.018;2023-01-15T06:50:59;5.80;99.90
47600;DHT22;33323;52.124;6.018;2023-01-15T06:53:27;5.80;99.90
47600;DHT22;33323;52.124;6.018;2023-01-15T06:56:04;5.80;99.90
47600;DHT22;33323;52.124;6.018;2023-01-15T06:58:34;5.80;99.90
47600;DHT22;33323;52.124;6.018;2023-01-15T07:01:14;5.80;99.90
47600;DHT22;33323;52.124;6.018;2023-01-15T07:03:49;5.80;99.90
47600;DHT22;33323;52.124;6.018;2023-01-15T07:06:16;5.70;99.90
47600;DHT22;33323;52.124;6.018;2023-01-15T07:08:44;5.70;99.90
47600;DHT22;33323;52.124;6.018;2023-01-15T07:11:12;5.50;99.90
47600;DHT22;33323;52.124;6.018;2023-01-15T07:13:40;5.60;99.90
47600;DHT22;33323;52.124;6.018;2023-01-15T07:16:07;5.60;99.90
47600;DHT22;33323;52.124;6.018;2023-01-15T07:18:55;5.60;99.90
47600;DHT22;33323;52.124;6.018;2023-01-15T07:21:24;5.50;99.90
47600;DHT22;33323;52.124;6.018;2023-01-15T07:23:53;5.60;99.90
47600;DHT22;33323;52.124;6.018;2023-01-15T07:26:21;5.50;99.90
47600;DHT22;33323;52.124;6.018;2023-01-15T07:28:49;5.40;99.90
47600;DHT22;33323;52.124;6.018;2023-01-15T07:31:16;5.40;99.90
47600;DHT22;33323;52.124;6.018;2023-01-15T07:33:45;5.30;99.90
47600;DHT22;33323;52.124;6.018;2023-01-15T07:36:13;5.30;99.90
47600;DHT22;33323;52.124;6.018;2023-01-15T07:38:40;5.30;99.90
47600;DHT22;33323;52.124;6.018;2023-01-15T07:41:10;5.20;99.90
47600;DHT22;33323;52.124;6.018;2023-01-15T07:43:56;5.20;99.90
47600;DHT22;33323;52.124;6.018;2023-01-15T07:46:43;5.20;99.90
47600;DHT22;33323;52.124;6.018;2023-01-15T07:49:30;5.20;99.90
47600;DHT22;33323;52.124;6.018;2023-01-15T07:52:17;5.10;99.90
47600;DHT22;33323;52.124;6.018;2023-01-15T07:54:50;5.10;99.90
47600;DHT22;33323;52.124;6.018;2023-01-15T07:57:33;5.10;99.90
47600;DHT22;33323;52.124;6.018;2023-01-15T08:00:14;5.10;99.90
47600;DHT22;33323;52.124;6.018;2023-01-15T08:02:49;5.20;99.90
47600;DHT22;33323;52.124;6.018;2023-01-15T08:05:18;5.20;99.90
47600;DHT22;33323;52.124;6.018;2023-01-15T08:07:51;5.20;99.90
47600;DHT22;33323;52.124;6.018;2023-01-15T08:10:20;5.20;99.90
47600;DHT22;33323;52.124;6.018;2023-01-15T08:12:50;5.20;99.90
47600;DHT22;33323;52.124;6.018;2023-01-15T08:15:40;5.20;99.90
47600;DHT22;33323;52.124;6.018;2023-01-15T08:18:10;5.30;99.90
47600;DHT22;33323;52.124;6.018;2023-01-15T08:20:38;5.20;99.90
47600;DHT22;33323;52.124;6.018;2023-01-15T08:23:05;5.10;99.90
47600;DHT22;33323;52.124;6.018;2023-01-15T08:25:32;5.20;99.90
47600;DHT22;33323;52.124;6.018;2023-01-15T08:28:02;5.20;99.90
47600;DHT22;33323;52.124;6.018;2023-01-15T08:30:33;5.40;99.90
47600;DHT22;33323;52.124;6.018;2023-01-15T08:33:08;5.60;99.90
47600;DHT22;33323;52.124;6.018;2023-01-15T08:35:37;5.80;99.90
47600;DHT22;33323;52.124;6.018;2023-01-15T08:38:07;6.10;99.90
47600;DHT22;33323;52.124;6.018;2023-01-15T08:40:37;6.10;99.90
47600;DHT22;33323;52.124;6.018;2023-01-15T08:43:30;6.30;99.90
47600;DHT22;33323;52.124;6.018;2023-01-15T08:46:03;6.40;99.90
47600;DHT22;33323;52.124;6.018;2023-01-15T08:48:32;6.50;99.90
47600;DHT22;33323;52.124;6.018;2023-01-15T08:51:07;6.50;99.90
47600;DHT22;33323;52.124;6.018;2023-01-15T08:53:39;6.50;99.90
47600;DHT22;33323;52.124;6.018;2023-01-15T08:56:12;6.60;99.90
47600;DHT22;33323;52.124;6.018;2023-01-15T08:58:49;6.70;99.90
47600;DHT22;33323;52.124;6.018;2023-01-15T09:01:16;6.70;99.90
47600;DHT22;33323;52.124;6.018;2023-01-15T09:03:51;6.80;99.90
47600;DHT22;33323;52.124;6.018;2023-01-15T09:06:21;6.80;99.90
47600;DHT22;33323;52.124;6.018;2023-01-15T09:08:50;6.70;99.90
47600;DHT22;33323;52.124;6.018;2023-01-15T09:11:17;6.80;99.90
47600;DHT22;33323;52.124;6.018;2023-01-15T09:13:55;6.70;99.90
47600;DHT22;33323;52.124;6.018;2023-01-15T09:16:55;6.80;99.90
47600;DHT22;33323;52.124;6.018;2023-01-15T09:19:23;7.00;99.90
47600;DHT22;33323;52.124;6.018;2023-01-15T09:21:58;7.00;99.90
47600;DHT22;33323;52.124;6.018;2023-01-15T09:24:31;7.00;99.90
47600;DHT22;33323;52.124;6.018;2023-01-15T09:27:13;7.30;99.90
47600;DHT22;33323;52.124;6.018;2023-01-15T09:29:41;7.30;99.90
47600;DHT22;33323;52.124;6.018;2023-01-15T09:32:08;7.20;99.90
47600;DHT22;33323;52.124;6.018;2023-01-15T09:35:08;7.20;99.90
47600;DHT22;33323;52.124;6.018;2023-01-15T09:37:35;7.30;99.90
47600;DHT22;33323;52.124;6.018;2023-01-15T09:40:04;7.40;99.90
47600;DHT22;33323;52.124;6.018;2023-01-15T09:42:56;7.30;99.90
47600;DHT22;33323;52.124;6.018;2023-01-15T09:45:44;6.80;99.90
47600;DHT22;33323;52.124;6.018;2023-01-15T09:48:31;6.70;99.90
47600;DHT22;33323;52.124;6.018;2023-01-15T09:54:04;7.10;99.90
47600;DHT22;33323;52.124;6.018;2023-01-15T09:56:47;7.00;99.90
47600;DHT22;33323;52.124;6.018;2023-01-15T09:59:28;7.00;99.90
47600;DHT22;33323;52.124;6.018;2023-01-15T10:02:24;7.10;99.90
47600;DHT22;33323;52.124;6.018;2023-01-15T10:08:28;7.30;99.90
47600;DHT22;33323;52.124;6.018;2023-01-15T10:11:04;7.30;99.90
47600;DHT22;33323;52.124;6.018;2023-01-15T10:14:04;7.10;99.90
47600;DHT22;33323;52.124;6.018;2023-01-15T10:16:34;6.90;99.90
47600;DHT22;33323;52.124;6.018;2023-01-15T10:19:09;7.20;99.90
47600;DHT22;33323;52.124;6.018;2023-01-15T10:24:37;7.20;99.90
47600;DHT22;33323;52.124;6.018;2023-01-15T10:27:17;7.40;99.90
47600;DHT22;33323;52.124;6.018;2023-01-15T10:30:04;7.60;99.90
47600;DHT22;33323;52.124;6.018;2023-01-15T10:32:43;7.50;99.90
47600;DHT22;33323;52.124;6.018;2023-01-15T10:39:12;7.60;99.90
47600;DHT22;33323;52.124;6.018;2023-01-15T10:41:36;7.50;99.90
47600;DHT22;33323;52.124;6.018;2023-01-15T10:45:02;7.40;99.90
47600;DHT22;33323;52.124;6.018;2023-01-15T10:47:38;7.30;99.90
47600;DHT22;33323;52.124;6.018;2023-01-15T10:50:36;7.30;99.90
47600;DHT22;33323;52.124;6.018;2023-01-15T10:53:11;7.40;99.90
47600;DHT22;33323;52.124;6.018;2023-01-15T10:55:47;7.20;99.90
47600;DHT22;33323;52.124;6.018;2023-01-15T10:58:41;7.30;99.90
47600;DHT22;33323;52.124;6.018;2023-01-15T11:01:24;7.40;99.90
47600;DHT22;33323;52.124;6.018;2023-01-15T11:04:01;7.30;99.90
47600;DHT22;33323;52.124;6.018;2023-01-15T11:06:30;7.30;99.90
47600;DHT22;33323;52.124;6.018;2023-01-15T11:08:58;7.30;99.90
47600;DHT22;33323;52.124;6.018;2023-01-15T11:11:43;7.20;99.90
47600;DHT22;33323;52.124;6.018;2023-01-15T11:14:41;7.20;99.90
47600;DHT22;33323;52.124;6.018;2023-01-15T11:17:51;7.20;99.90
47600;DHT22;33323;52.124;6.018;2023-01-15T11:20:43;7.20;99.90
47600;DHT22;33323;52.124;6.018;2023-01-15T11:23:19;7.30;99.90
47600;DHT22;33323;52.124;6.018;2023-01-15T11:25:52;7.30;99.90
47600;DHT22;33323;52.124;6.018;2023-01-15T11:28:36;7.40;99.90
47600;DHT22;33323;52.124;6.018;2023-01-15T11:31:10;7.40;99.90
47600;DHT22;33323;52.124;6.018;2023-01-15T11:34:03;7.40;99.90
47600;DHT22;33323;52.124;6.018;2023-01-15T11:36:43;7.40;99.90
47600;DHT22;33323;52.124;6.018;2023-01-15T11:39:26;7.40;99.90
47600;DHT22;33323;52.124;6.018;2023-01-15T11:42:01;7.30;99.90
47600;DHT22;33323;52.124;6.018;2023-01-15T11:44:54;7.30;99.90
47600;DHT22;33323;52.124;6.018;2023-01-15T11:48:08;7.30;99.90
47600;DHT22;33323;52.124;6.018;2023-01-15T11:51:11;7.50;99.90
47600;DHT22;33323;52.124;6.018;2023-01-15T11:53:49;7.40;99.90
47600;DHT22;33323;52.124;6.018;2023-01-15T11:56:32;7.50;99.90
47600;DHT22;33323;52.124;6.018;2023-01-15T11:59:10;7.50;99.90
47600;DHT22;33323;52.124;6.018;2023-01-15T12:02:39;7.40;99.90
47600;DHT22;33323;52.124;6.018;2023-01-15T12:05:17;7.50;99.90
47600;DHT22;33323;52.124;6.018;2023-01-15T12:07:56;7.50;99.90
47600;DHT22;33323;52.124;6.018;2023-01-15T12:10:34;7.40;99.90
47600;DHT22;33323;52.124;6.018;2023-01-15T12:14:02;7.00;99.90
47600;DHT22;33323;52.124;6.018;2023-01-15T12:16:52;6.80;99.90
47600;DHT22;33323;52.124;6.018;2023-01-15T12:28:25;6.70;99.90
47600;DHT22;33323;52.124;6.018;2023-01-15T12:31:16;6.70;99.90
47600;DHT22;33323;52.124;6.018;2023-01-15T12:40:31;6.80;99.90
47600;DHT22;33323;52.124;6.018;2023-01-15T12:42:47;6.80;99.90
47600;DHT22;33323;52.124;6.018;2023-01-15T12:45:37;6.80;99.90
47600;DHT22;33323;52.124;6.018;2023-01-15T12:48:28;6.90;99.90
47600;DHT22;33323;52.124;6.018;2023-01-15T12:51:02;6.80;99.90
47600;DHT22;33323;52.124;6.018;2023-01-15T12:56:22;6.60;99.90
47600;DHT22;33323;52.124;6.018;2023-01-15T12:59:00;6.40;99.90
47600;DHT22;33323;52.124;6.018;2023-01-15T13:04:43;6.30;99.90
47600;DHT22;33323;52.124;6.018;2023-01-15T13:07:32;6.30;99.90
47600;DHT22;33323;52.124;6.018;2023-01-15T13:12:58;6.10;99.90
47600;DHT22;33323;52.124;6.018;2023-01-15T13:15:38;6.00;99.90
47600;DHT22;33323;52.124;6.018;2023-01-15T13:19:08;5.90;99.90
47600;DHT22;33323;52.124;6.018;2023-01-15T13:21:35;5.80;99.90
47600;DHT22;33323;52.124;6.018;2023-01-15T13:24:20;5.70;99.90
47600;DHT22;33323;52.124;6.018;2023-01-15T13:33:32;5.70;99.90
47600;DHT22;33323;52.124;6.018;2023-01-15T13:35:51;5.70;99.90
47600;DHT22;33323;52.124;6.018;2023-01-15T13:38:24;5.80;99.90
47600;DHT22;33323;52.124;6.018;2023-01-15T13:40:54;5.80;99.90
47600;DHT22;33323;52.124;6.018;2023-01-15T13:43:41;5.80;99.90
47600;DHT22;33323;52.124;6.018;2023-01-15T13:46:12;5.90;99.90
47600;DHT22;33323;52.124;6.018;2023-01-15T13:48:50;5.90;99.90
47600;DHT22;33323;52.124;6.018;2023-01-15T13:51:39;5.90;99.90
47600;DHT22;33323;52.124;6.018;2023-01-15T13:54:26;5.90;99.90
47600;DHT22;33323;52.124;6.018;2023-01-15T13:56:54;5.90;99.90
47600;DHT22;33323;52.124;6.018;2023-01-15T13:59:42;5.70;99.90
47600;DHT22;33323;52.124;6.018;2023-01-15T14:02:36;5.50;99.90
47600;DHT22;33323;52.124;6.018;2023-01-15T14:07:51;5.50;99.90
47600;DHT22;33323;52.124;6.018;2023-01-15T14:22:28;5.80;99.90
47600;DHT22;33323;52.124;6.018;2023-01-15T14:25:42;5.80;99.90
47600;DHT22;33323;52.124;6.018;2023-01-15T14:37:21;5.90;99.90
47600;DHT22;33323;52.124;6.018;2023-01-15T14:39:55;6.00;99.90
47600;DHT22;33323;52.124;6.018;2023-01-15T14:42:33;6.10;99.90
47600;DHT22;33323;52.124;6.018;2023-01-15T14:45:30;6.10;99.90
47600;DHT22;33323;52.124;6.018;2023-01-15T14:48:01;6.10;99.90
47600;DHT22;33323;52.124;6.018;2023-01-15T14:50:49;6.20;99.90
47600;DHT22;33323;52.124;6.018;2023-01-15T14:53:27;6.20;99.90
47600;DHT22;33323;52.124;6.018;2023-01-15T14:59:11;6.20;99.90
47600;DHT22;33323;52.124;6.018;2023-01-15T15:07:12;6.30;99.90
47600;DHT22;33323;52.124;6.018;2023-01-15T15:09:52;6.30;99.90
47600;DHT22;33323;52.124;6.018;2023-01-15T15:13:01;6.40;99.90
47600;DHT22;33323;52.124;6.018;2023-01-15T15:15:49;6.40;99.90
47600;DHT22;33323;52.124;6.018;2023-01-15T15:23:43;6.50;99.90
47600;DHT22;33323;52.124;6.018;2023-01-15T15:26:26;6.50;99.90
47600;DHT22;33323;52.124;6.018;2023-01-15T15:29:00;6.50;99.90
47600;DHT22;33323;52.124;6.018;2023-01-15T15:34:30;6.40;99.90
47600;DHT22;33323;52.124;6.018;2023-01-15T15:37:25;6.40;99.90
47600;DHT22;33323;52.124;6.018;2023-01-15T15:40:19;6.30;99.90
47600;DHT22;33323;52.124;6.018;2023-01-15T15:43:12;6.30;99.90
47600;DHT22;33323;52.124;6.018;2023-01-15T15:45:58;6.40;99.90
47600;DHT22;33323;52.124;6.018;2023-01-15T15:48:50;6.40;99.90
47600;DHT22;33323;52.124;6.018;2023-01-15T15:54:11;6.30;99.90
47600;DHT22;33323;52.124;6.018;2023-01-15T15:56:59;6.30;99.90
47600;DHT22;33323;52.124;6.018;2023-01-15T15:59:36;6.30;99.90
47600;DHT22;33323;52.124;6.018;2023-01-15T16:02:20;6.20;99.90
47600;DHT22;33323;52.124;6.018;2023-01-15T16:04:56;6.20;99.90
47600;DHT22;33323;52.124;6.018;2023-01-15T16:07:31;6.20;99.90
47600;DHT22;33323;52.124;6.018;2023-01-15T16:10:31;6.10;99.90
47600;DHT22;33323;52.124;6.018;2023-01-15T16:13:03;6.10;99.90
47600;DHT22;33323;52.124;6.018;2023-01-15T16:15:38;6.00;99.90
47600;DHT22;33323;52.124;6.018;2023-01-15T16:21:19;5.80;99.90
47600;DHT22;33323;52.124;6.018;2023-01-15T16:55:58;5.70;99.90
47600;DHT22;33323;52.124;6.018;2023-01-15T17:00:00;5.70;99.90
47600;DHT22;33323;52.124;6.018;2023-01-15T17:02:43;5.50;99.90
47600;DHT22;33323;52.124;6.018;2023-01-15T17:05:21;5.40;99.90
47600;DHT22;33323;52.124;6.018;2023-01-15T17:07:50;5.40;99.90
47600;DHT22;33323;52.124;6.018;2023-01-15T17:10:25;5.40;99.90
47600;DHT22;33323;52.124;6.018;2023-01-15T17:12:59;5.40;99.90
47600;DHT22;33323;52.124;6.018;2023-01-15T17:15:38;5.40;99.90
47600;DHT22;33323;52.124;6.018;2023-01-15T17:18:20;5.40;99.90
47600;DHT22;33323;52.124;6.018;2023-01-15T17:21:01;5.50;99.90
47600;DHT22;33323;52.124;6.018;2023-01-15T17:23:35;5.50;99.90
47600;DHT22;33323;52.124;6.018;2023-01-15T17:37:53;5.70;99.90
47600;DHT22;33323;52.124;6.018;2023-01-15T18:13:58;5.50;99.90
47600;DHT22;33323;52.124;6.018;2023-01-15T18:34:52;5.40;99.90
47600;DHT22;33323;52.124;6.018;2023-01-15T18:37:29;5.40;99.90
47600;DHT22;33323;52.124;6.018;2023-01-15T18:40:19;5.40;99.90
47600;DHT22;33323;52.124;6.018;2023-01-15T18:42:58;5.30;99.90
47600;DHT22;33323;52.124;6.018;2023-01-15T18:45:47;5.20;99.90
47600;DHT22;33323;52.124;6.018;2023-01-15T18:48:45;5.20;99.90
47600;DHT22;33323;52.124;6.018;2023-01-15T18:51:25;5.20;99.90
47600;DHT22;33323;52.124;6.018;2023-01-15T18:53:52;5.20;99.90
47600;DHT22;33323;52.124;6.018;2023-01-15T18:56:19;5.20;99.90
47600;DHT22;33323;52.124;6.018;2023-01-15T18:59:12;5.10;99.90
47600;DHT22;33323;52.124;6.018;2023-01-15T19:01:40;5.10;99.90
47600;DHT22;33323;52.124;6.018;2023-01-15T19:04:12;5.10;99.90
47600;DHT22;33323;52.124;6.018;2023-01-15T19:06:46;5.00;99.90
47600;DHT22;33323;52.124;6.018;2023-01-15T19:09:14;5.00;99.90
47600;DHT22;33323;52.124;6.018;2023-01-15T19:11:43;5.00;99.90
47600;DHT22;33323;52.124;6.018;2023-01-15T19:14:11;4.90;99.90
47600;DHT22;33323;52.124;6.018;2023-01-15T19:16:58;4.90;99.90
47600;DHT22;33323;52.124;6.018;2023-01-15T19:19:45;4.90;99.90
47600;DHT22;33323;52.124;6.018;2023-01-15T19:22:15;4.80;99.90
47600;DHT22;33323;52.124;6.018;2023-01-15T19:25:01;4.80;99.90
47600;DHT22;33323;52.124;6.018;2023-01-15T19:27:29;4.90;99.90
47600;DHT22;33323;52.124;6.018;2023-01-15T20:08:11;4.60;99.90
47600;DHT22;33323;52.124;6.018;2023-01-15T20:10:47;4.60;99.90
47600;DHT22;33323;52.124;6.018;2023-01-15T20:16:13;4.50;99.90
47600;DHT22;33323;52.124;6.018;2023-01-15T20:18:46;4.50;99.90
47600;DHT22;33323;52.124;6.018;2023-01-15T20:21:16;4.50;99.90
47600;DHT22;33323;52.124;6.018;2023-01-15T20:28:13;4.40;99.90
47600;DHT22;33323;52.124;6.018;2023-01-15T20:31:03;4.30;99.90
47600;DHT22;33323;52.124;6.018;2023-01-15T20:33:31;4.40;99.90
47600;DHT22;33323;52.124;6.018;2023-01-15T20:38:54;4.30;99.90
47600;DHT22;33323;52.124;6.018;2023-01-15T20:41:40;4.20;99.90
47600;DHT22;33323;52.124;6.018;2023-01-15T20:44:27;4.20;99.90
47600;DHT22;33323;52.124;6.018;2023-01-15T20:47:26;4.20;99.90
47600;DHT22;33323;52.124;6.018;2023-01-15T20:50:16;4.20;99.90
47600;DHT22;33323;52.124;6.018;2023-01-15T20:53:04;4.10;99.90
47600;DHT22;33323;52.124;6.018;2023-01-15T20:55:36;4.10;99.90
47600;DHT22;33323;52.124;6.018;2023-01-15T20:58:23;4.10;99.90
47600;DHT22;33323;52.124;6.018;2023-01-15T21:00:51;4.10;99.90
47600;DHT22;33323;52.124;6.018;2023-01-15T21:03:25;4.10;99.90
47600;DHT22;33323;52.124;6.018;2023-01-15T21:05:57;4.00;99.90